Main page
METAR-TAF:

METAR-TAF

Airports :

Touho Airport

Touho, New Caledonia

latitude: 20-47-25S, longitude: 165-15-34E, elevation: 3 m

METAR: missing

Time: 03:44 (16:44 UTC)

Forecast

The report was made 23 hours and 44 minutes ago, at 17:00 UTC
Forecast valid from 20 at 18 UTC to 21 at 18 UTC
Wind 8 kt from the South
Visibility 10 km or more
Few clouds at a height of 3500 ft
Scattered clouds at a height of 5500 ft
Becoming
from 20 at 23 UTC to 21 at 01 UTC
Wind 15 kt from the East/Southeast with gusts up to 25 kt
Probability 40% :
Temporary
from 21 at 07 UTC to 21 at 15 UTC
rain showers,

TAF: NWWU 201700Z 2018/2118 18008KT 9999 FEW035 SCT055 BECMG 2023/2101 12015G25KT PROB40 TEMPO 2107/2115 SHRA

Weather observations and forecasts of more than 4000 airports (METAR and TAF reports).

The available stations are represented by yellow and red dots on the map.

Hover mouse over dot to see the name of the station.

Then click to see weather observations and forecasts.

To change the map : click on the green buttons with a black cross to zoom in, on the green button with a dash to zoom out, or on the green arrows for adjacent maps.


METAR-TAF: